x

West Point, Wa (wpow1) Weather Station

4:00am - Fri 23rd Jun 2017 All times are PDT. -7 hours from GMT.

  • Wind
    3mph, 3mph gusts
  • Air Temp 55°f
  • Sea Pressure 1023.8mb
  • West Point, Wa
  • West Point, Wa

More Historic Weather Station data

Upgrade to MSW Pro to gain access to the past 30 days of data for over 8000 Wavebouys and Weather Stations around the globe.

Join Pro

Comparision Forecast

View Surf forecast
   
Fri 06/23 4:00am 3 3 mph 1023.8mb 55f
3:00am 1 2 mph 1024mb 55f
2:00am 3 3 mph 1024mb 55f
1:00am 8 9 mph 1024.2mb 56f
12:00am 9 9 mph 1023.9mb 57f
Thu 06/22 11:00pm 7 8 mph 1023.8mb 57f
10:00pm 8 8 mph 1023.7mb 60f
9:00pm 9 9 mph 1023.7mb 62f
8:00pm 9 9 mph 1023.7mb 61f
7:00pm 15 16 mph 1023.7mb 61f
6:00pm 13 14 mph 1023.7mb 61f
5:00pm 11 11 mph 1024.2mb 61f
4:00pm 7 9 mph 1024.7mb 61f
3:00pm 14 14 mph 1025mb 62f
2:00pm 16 16 mph 1025.1mb 61f
1:00pm 13 14 mph 1025.8mb 60f
12:00pm 13 14 mph 1026.4mb 59f
11:00am 14 14 mph 1026.7mb 58f
10:00am 13 14 mph 1026.9mb 56f
9:00am 9 10 mph 1027mb 55f
8:00am 6 7 mph 1026.9mb 53f
7:00am 7 7 mph 1026.9mb 52f
6:00am 8 8 mph 1026.7mb 52f
5:00am 6 7 mph 1026.3mb 52f
4:00am 5 6 mph 1026.5mb 52f
3:00am 6 8 mph 1026.7mb 53f
2:00am 3 5 mph 1026.8mb 53f
1:00am 3 3 mph 1026.4mb 55f
12:00am 7 8 mph 1026.1mb 55f
Wed 06/21 11:00pm 10 11 mph 1026.1mb 56f
10:00pm 13 14 mph 1025.8mb 56f
9:00pm 14 16 mph 1025.4mb 57f
8:00pm 11 13 mph 1025.5mb 57f
7:00pm 18 20 mph 1025.4mb 58f
6:00pm 17 18 mph 1025.5mb 58f
5:00pm 16 17 mph 1026mb 58f
4:00pm 17 17 mph 1026.1mb 58f
3:00pm 11 11 mph 1026.3mb 58f
2:00pm 8 8 mph 1026.5mb 59f
1:00pm 11 11 mph 1026.9mb 58f
12:00pm 9 10 mph 1027.4mb 57f
11:00am 10 10 mph 1027.3mb 56f
10:00am 7 8 mph 1027.2mb 56f
9:00am 5 6 mph 1026.8mb 55f
8:00am 6 6 mph 1026.7mb 55f
7:00am 7 8 mph 1026.2mb 54f
6:00am 8 10 mph 1025.9mb 53f
5:00am 7 7 mph 1026.1mb 53f
4:00am 6 8 mph 1025.7mb 54f
3:00am 7 9 mph 1025.3mb 53f
2:00am 8 10 mph 1024.7mb 53f
1:00am 7 11 mph 1024.5mb 54f
12:00am 6 7 mph 1024.2mb 55f
Tue 06/20 11:00pm 7 9 mph 1023.8mb 55f
10:00pm 7 8 mph 1023.4mb 56f
9:00pm 5 6 mph 1022.6mb 56f
8:00pm 8 10 mph 1022.1mb 57f
7:00pm 11 11 mph 1021.9mb 58f
6:00pm 14 15 mph 1021.6mb 59f
5:00pm 14 15 mph 1021.3mb 58f
4:00pm 14 15 mph 1021.3mb 58f
3:00pm 15 16 mph 1021.2mb 58f
2:00pm 16 17 mph 1021.1mb 57f
1:00pm 5 5 mph 1020.5mb 60f
12:00pm 8 9 mph 1020mb 61f
11:00am 10 10 mph 1019.8mb 58f
10:00am 9 9 mph 1019.5mb 56f
9:00am 9 9 mph 1019.1mb 58f
8:00am 8 9 mph 1018.9mb 56f
7:00am 9 9 mph 1018.6mb 57f
6:00am 9 9 mph 1018.2mb 57f
5:00am 8 9 mph 1017.8mb 58f
4:00am 11 13 mph 1017.2mb 58f
3:00am 8 9 mph 1017mb 59f
2:00am  -  1 mph 1016.6mb 60f
1:00am 3 3 mph 1016.8mb 60f
12:00am 3 3 mph 1016.6mb 60f
Mon 06/19 11:00pm 5 5 mph 1016.8mb 60f
10:00pm 3 5 mph 1016.4mb 61f
9:00pm 6 6 mph 1016.4mb 60f
8:00pm 6 7 mph 1016.4mb 58f
7:00pm 9 10 mph 1016mb 61f
6:00pm 9 10 mph 1016.4mb 59f
5:00pm 13 13 mph 1016.3mb 60f
4:00pm 11 11 mph 1016.3mb 60f
3:00pm 10 10 mph 1016.2mb 59f
2:00pm 16 17 mph 1016.1mb 59f
1:00pm 16 16 mph 1016.8mb 58f